Time;durP1;ratioP1;P1;durP2;ratioP2;P2;SDS_P1;SDS_P2;PMS_P1;PMS_P2;Temp;Humidity;BMP_temperature;BMP_pressure;BME280_temperature;BME280_humidity;BME280_pressure;Samples;Min_cycle;Max_cycle;Signal;HPM_P1;HPM_P2
2022/05/13 00:00:34;;;;;;;;;;;;;;;16.52;45.77;100842.97;4996390;28;7151;-72
2022/05/13 00:03:00;;;;;;;;;;;;;;;16.50;45.91;100839.44;5003102;28;9414;-72
2022/05/13 00:05:25;;;;;;;;;;;;;;;16.48;45.72;100835.06;4999381;28;6871;-72
2022/05/13 00:07:51;;;;;;;;;;;;;;;16.45;46.01;100838.44;5000112;28;6819;-72
2022/05/13 00:10:18;;;;;;;;;;;;;;;16.44;46.07;100840.97;5003734;28;8059;-72
2022/05/13 00:12:43;;;;;;;;;;;;;;;16.42;45.37;100835.75;5005845;28;7145;-72
2022/05/13 00:15:15;;;;;;;;;;;;;;;16.38;45.48;100832.19;5000089;28;6827;-72
2022/05/13 00:17:41;;;;;;;;;;;;;;;16.35;45.45;100828.63;4994546;28;6977;-72
2022/05/13 00:20:11;;;;;;;;;;;;;;;16.32;45.20;100836.28;5002672;28;6783;-72
2022/05/13 00:22:52;;;;;;;;;;;;;;;16.27;45.09;100836.13;5000880;28;6856;-72
2022/05/13 00:25:26;;;;;;;;;;;;;;;16.22;45.15;100833.44;4989665;28;6982;-72
2022/05/13 00:27:56;;;;;;;;;;;;;;;16.17;45.34;100839.25;5002937;28;6974;-72
2022/05/13 00:30:23;;;;;;;;;;;;;;;16.12;45.32;100831.34;4986154;28;7162;-72
2022/05/13 00:32:49;;;;;;;;;;;;;;;16.06;45.15;100831.16;5005192;28;7599;-72
2022/05/13 00:35:17;;;;;;;;;;;;;;;16.02;45.62;100829.28;4979894;28;7153;-72
2022/05/13 00:37:43;;;;;;;;;;;;;;;16.00;45.83;100828.38;5004263;28;6827;-72
2022/05/13 00:40:10;;;;;;;;;;;;;;;15.98;45.53;100828.31;5004273;28;7040;-72
2022/05/13 00:42:36;;;;;;;;;;;;;;;15.98;45.38;100827.44;5002139;28;6804;-72
2022/05/13 00:45:02;;;;;;;;;;;;;;;15.99;45.43;100818.88;4996827;28;6875;-72
2022/05/13 00:47:28;;;;;;;;;;;;;;;15.98;44.91;100810.22;4996148;28;6816;-72
2022/05/13 00:49:56;;;;;;;;;;;;;;;15.97;45.05;100808.47;4997128;28;6799;-72
2022/05/13 00:52:24;;;;;;;;;;;;;;;15.95;45.27;100818.78;5000709;28;6804;-72
2022/05/13 00:54:50;;;;;;;;;;;;;;;15.91;45.31;100816.91;4989195;28;6804;-72
2022/05/13 00:57:18;;;;;;;;;;;;;;;15.87;46.05;100817.63;4994455;28;6970;-72
2022/05/13 00:59:47;;;;;;;;;;;;;;;15.81;45.45;100819.97;4996252;28;6824;-72
2022/05/13 01:02:13;;;;;;;;;;;;;;;15.77;45.54;100824.16;5002021;28;6839;-72
2022/05/13 01:04:39;;;;;;;;;;;;;;;15.73;46.13;100824.00;4996505;28;7859;-72
2022/05/13 01:07:19;;;;;;;;;;;;;;;15.73;45.91;100826.59;4998060;28;6977;-72
2022/05/13 01:09:52;;;;;;;;;;;;;;;15.70;46.12;100817.06;4993611;28;6815;-72
2022/05/13 01:12:26;;;;;;;;;;;;;;;15.67;45.89;100820.41;4997362;28;6963;-72
2022/05/13 01:14:57;;;;;;;;;;;;;;;15.66;46.42;100816.06;5017496;28;6839;-72
2022/05/13 01:20:24;;;;;;;;;;;;;;;15.62;45.95;100819.38;4995431;28;6967;-72
2022/05/13 01:22:53;;;;;;;;;;;;;;;15.62;45.96;100818.50;4998664;28;7186;-72
2022/05/13 01:25:27;;;;;;;;;;;;;;;15.61;45.95;100820.19;5003904;28;8706;-72
2022/05/13 01:27:55;;;;;;;;;;;;;;;15.61;45.79;100821.91;5002226;28;6804;-72
2022/05/13 01:30:30;;;;;;;;;;;;;;;15.59;45.68;100816.69;4999097;28;7023;-72
2022/05/13 01:32:56;;;;;;;;;;;;;;;15.58;46.03;100822.69;4972079;28;6983;-72
2022/05/13 01:35:23;;;;;;;;;;;;;;;15.57;45.70;100826.09;5001526;28;7212;-72
2022/05/13 01:37:50;;;;;;;;;;;;;;;15.54;45.46;100831.13;4997541;28;6791;-72
2022/05/13 01:40:17;;;;;;;;;;;;;;;15.52;45.70;100827.63;4999486;28;6800;-71
2022/05/13 01:42:43;;;;;;;;;;;;;;;15.48;45.85;100825.78;4983298;28;6808;-71
2022/05/13 01:45:11;;;;;;;;;;;;;;;15.46;45.55;100820.53;4984031;28;6938;-71
2022/05/13 01:47:38;;;;;;;;;;;;;;;15.44;45.38;100816.16;4991370;28;6820;-71
2022/05/13 01:50:06;;;;;;;;;;;;;;;15.43;45.87;100827.31;5012842;28;6795;-71
2022/05/13 01:52:32;;;;;;;;;;;;;;;15.39;45.40;100823.72;4995350;28;6796;-71
2022/05/13 01:54:58;;;;;;;;;;;;;;;15.36;45.80;100827.09;5001053;28;6862;-71
2022/05/13 01:57:23;;;;;;;;;;;;;;;15.34;45.79;100828.72;5002246;28;6792;-71
2022/05/13 01:59:49;;;;;;;;;;;;;;;15.31;45.43;100817.44;5001267;28;6871;-71
2022/05/13 02:02:15;;;;;;;;;;;;;;;15.27;46.01;100812.16;4995786;28;7003;-72
2022/05/13 02:04:41;;;;;;;;;;;;;;;15.25;45.90;100812.91;4999718;28;6848;-72
2022/05/13 02:07:06;;;;;;;;;;;;;;;15.19;45.21;100813.59;4997415;28;6776;-72
2022/05/13 02:09:32;;;;;;;;;;;;;;;15.14;45.75;100808.25;5000772;28;7474;-72
2022/05/13 02:11:58;;;;;;;;;;;;;;;15.10;46.11;100811.56;4996952;28;6772;-72
2022/05/13 02:14:24;;;;;;;;;;;;;;;15.08;45.55;100817.47;4981749;28;6890;-72
2022/05/13 02:16:49;;;;;;;;;;;;;;;15.06;46.23;100821.72;4994926;28;7074;-72
2022/05/13 02:19:17;;;;;;;;;;;;;;;15.03;45.25;100825.06;5001482;28;6785;-71
2022/05/13 02:21:42;;;;;;;;;;;;;;;15.02;45.51;100828.47;4983394;28;8846;-71
2022/05/13 02:24:08;;;;;;;;;;;;;;;14.99;46.00;100839.56;5003126;28;7218;-71
2022/05/13 02:26:35;;;;;;;;;;;;;;;14.95;45.70;100834.22;4996976;28;6867;-71
2022/05/13 02:29:01;;;;;;;;;;;;;;;14.90;45.90;100834.03;4985347;28;7027;-71
2022/05/13 02:31:30;;;;;;;;;;;;;;;14.87;45.72;100841.69;4999441;28;6933;-71
2022/05/13 02:33:57;;;;;;;;;;;;;;;14.85;45.55;100843.34;4998212;28;7050;-71
2022/05/13 02:36:22;;;;;;;;;;;;;;;14.81;45.00;100836.28;4998317;28;7090;-71
2022/05/13 02:38:48;;;;;;;;;;;;;;;14.77;45.60;100832.69;5004232;28;6795;-71
2022/05/13 02:41:14;;;;;;;;;;;;;;;14.76;46.40;100837.81;4996488;28;6952;-71
2022/05/13 02:43:53;;;;;;;;;;;;;;;14.75;45.77;100834.34;5000397;28;6799;-71
2022/05/13 02:46:32;;;;;;;;;;;;;;;14.74;45.70;100835.19;5000584;28;7145;-71
2022/05/13 02:49:00;;;;;;;;;;;;;;;14.74;46.40;100836.91;4995711;28;7043;-71
2022/05/13 02:51:26;;;;;;;;;;;;;;;14.73;46.20;100838.59;4977239;28;6888;-71
2022/05/13 02:53:53;;;;;;;;;;;;;;;14.71;46.43;100832.47;4995872;28;7864;-71
2022/05/13 02:56:19;;;;;;;;;;;;;;;14.70;46.38;100836.72;4999060;28;6800;-71
2022/05/13 02:58:47;;;;;;;;;;;;;;;14.70;45.87;100838.44;4999712;28;6801;-71
2022/05/13 03:01:15;;;;;;;;;;;;;;;14.68;45.76;100828.06;4982355;28;7213;-71
2022/05/13 03:03:45;;;;;;;;;;;;;;;14.69;46.38;100837.56;5018665;28;6812;-71
2022/05/13 03:06:12;;;;;;;;;;;;;;;14.70;45.72;100838.44;4990388;28;6883;-71
2022/05/13 03:08:38;;;;;;;;;;;;;;;14.69;46.64;100839.28;5001876;28;6803;-71
2022/05/13 03:11:06;;;;;;;;;;;;;;;14.70;46.13;100833.28;5002512;28;6792;-71
2022/05/13 03:13:33;;;;;;;;;;;;;;;14.72;46.02;100821.31;5002034;28;6803;-71
2022/05/13 03:16:21;;;;;;;;;;;;;;;14.75;46.36;100823.16;5005722;28;6976;-71
2022/05/13 03:18:54;;;;;;;;;;;;;;;14.78;46.30;100821.59;5004624;28;6804;-71
2022/05/13 03:21:22;;;;;;;;;;;;;;;14.82;47.13;100826.03;5004834;28;6804;-72
2022/05/13 03:23:48;;;;;;;;;;;;;;;14.86;46.11;100822.72;5006033;28;6812;-72
2022/05/13 03:26:17;;;;;;;;;;;;;;;14.90;46.87;100820.28;5006997;28;7424;-72
2022/05/13 03:28:43;;;;;;;;;;;;;;;14.93;46.58;100825.53;4991072;28;7430;-72
2022/05/13 03:31:09;;;;;;;;;;;;;;;14.98;46.94;100808.53;4977845;28;7034;-72
2022/05/13 03:33:35;;;;;;;;;;;;;;;15.00;46.47;100817.22;5003348;28;7209;-72
2022/05/13 03:36:01;;;;;;;;;;;;;;;14.99;45.79;100821.47;5006247;28;6787;-72
2022/05/13 03:38:27;;;;;;;;;;;;;;;15.01;46.38;100816.38;5002173;28;6792;-72
2022/05/13 03:40:53;;;;;;;;;;;;;;;15.00;46.50;100822.38;5001477;28;6874;-72
2022/05/13 03:43:19;;;;;;;;;;;;;;;14.99;46.08;100820.63;5017838;28;6851;-72
2022/05/13 03:45:44;;;;;;;;;;;;;;;14.97;46.83;100817.13;5003791;28;6792;-72
2022/05/13 03:48:12;;;;;;;;;;;;;;;14.95;46.63;100817.03;4987570;28;6887;-72
2022/05/13 03:50:42;;;;;;;;;;;;;;;14.93;45.87;100813.53;4980863;28;6796;-72
2022/05/13 03:53:08;;;;;;;;;;;;;;;14.91;46.34;100811.72;5003286;28;7281;-72
2022/05/13 03:55:35;;;;;;;;;;;;;;;14.89;46.42;100819.38;5003309;28;6808;-72
2022/05/13 03:58:02;;;;;;;;;;;;;;;14.90;47.02;100822.88;5002189;28;6962;-72
2022/05/13 04:00:30;;;;;;;;;;;;;;;14.90;46.86;100822.88;5002051;28;6812;-72
2022/05/13 04:02:56;;;;;;;;;;;;;;;14.92;47.47;100823.78;5001621;28;7260;-72
2022/05/13 04:10:50;;;;;;;;;;;;;;;14.96;46.50;100829.13;5002524;28;6888;-72
2022/05/13 04:16:06;;;;;;;;;;;;;;;14.98;47.60;100837.78;5001289;28;6903;-72
2022/05/13 04:18:45;;;;;;;;;;;;;;;14.99;47.03;100836.09;5002056;28;7201;-72
2022/05/13 04:21:16;;;;;;;;;;;;;;;15.02;46.83;100841.38;4979063;28;6804;-72
2022/05/13 04:23:46;;;;;;;;;;;;;;;15.07;47.14;100836.38;4994329;28;7170;-72
2022/05/13 04:26:12;;;;;;;;;;;;;;;15.11;46.80;100840.81;5000853;28;8461;-72
2022/05/13 04:28:42;;;;;;;;;;;;;;;15.16;47.09;100844.47;4982591;28;7142;-72
2022/05/13 04:31:09;;;;;;;;;;;;;;;15.21;46.69;100850.69;5004794;28;6808;-72
2022/05/13 04:33:36;;;;;;;;;;;;;;;15.27;47.50;100862.94;5005156;28;6886;-72
2022/05/13 04:36:03;;;;;;;;;;;;;;;15.32;46.83;100856.22;4999339;28;7206;-72
2022/05/13 04:38:28;;;;;;;;;;;;;;;15.37;47.17;100848.63;5006292;28;6792;-72
2022/05/13 04:40:54;;;;;;;;;;;;;;;15.42;46.32;100857.44;5004807;28;6800;-72
2022/05/13 04:43:20;;;;;;;;;;;;;;;15.44;46.67;100855.78;4997583;28;6810;-72
2022/05/13 04:45:45;;;;;;;;;;;;;;;15.49;46.41;100855.94;4988682;28;6879;-72
2022/05/13 04:48:18;;;;;;;;;;;;;;;15.54;46.75;100863.03;5020620;28;6950;-72
2022/05/13 04:50:54;;;;;;;;;;;;;;;15.63;47.06;100856.44;5003956;28;6811;-72
2022/05/13 04:53:25;;;;;;;;;;;;;;;15.72;46.67;100866.19;4962080;28;8713;-72
2022/05/13 04:55:52;;;;;;;;;;;;;;;15.80;45.96;100857.00;5006401;28;6808;-72
2022/05/13 04:58:19;;;;;;;;;;;;;;;15.87;46.52;100860.66;5000275;28;6792;-72
2022/05/13 05:00:48;;;;;;;;;;;;;;;15.92;46.56;100865.19;5004823;28;7201;-72
2022/05/13 05:03:17;;;;;;;;;;;;;;;16.03;46.99;100857.78;5001437;28;7321;-72
2022/05/13 05:05:43;;;;;;;;;;;;;;;16.17;46.37;100865.13;5001654;28;6816;-72
2022/05/13 05:08:15;;;;;;;;;;;;;;;16.33;46.69;100861.34;5004143;28;7891;-72
2022/05/13 05:10:44;;;;;;;;;;;;;;;16.51;46.72;100861.03;5002141;28;6951;-72
2022/05/13 05:13:16;;;;;;;;;;;;;;;16.68;46.55;100869.28;5004274;28;6815;-72
2022/05/13 05:15:42;;;;;;;;;;;;;;;16.87;46.43;100869.84;4986903;28;6835;-72
2022/05/13 05:18:08;;;;;;;;;;;;;;;17.03;46.25;100872.09;5002517;28;7513;-73
2022/05/13 05:20:34;;;;;;;;;;;;;;;17.21;46.15;100876.06;5005116;28;6791;-73
2022/05/13 05:23:00;;;;;;;;;;;;;;;17.38;45.60;100875.63;5005978;28;7050;-73
2022/05/13 05:25:28;;;;;;;;;;;;;;;17.54;44.73;100879.53;5004234;28;7144;-73
2022/05/13 05:27:56;;;;;;;;;;;;;;;17.67;44.87;100885.91;5005738;28;6899;-73
2022/05/13 05:30:22;;;;;;;;;;;;;;;17.73;44.27;100884.38;5000147;28;6800;-72
2022/05/13 05:32:48;;;;;;;;;;;;;;;17.74;44.11;100880.03;4989771;28;6888;-72
2022/05/13 05:35:18;;;;;;;;;;;;;;;17.66;43.98;100879.84;5003735;28;6918;-72
2022/05/13 05:37:44;;;;;;;;;;;;;;;17.57;43.46;100901.19;4999187;28;7063;-72
2022/05/13 05:40:10;;;;;;;;;;;;;;;17.45;43.70;100896.59;4980126;28;7010;-72
2022/05/13 05:42:38;;;;;;;;;;;;;;;17.34;43.68;100901.47;4997488;28;7019;-72
2022/05/13 05:45:09;;;;;;;;;;;;;;;17.26;43.82;100905.53;5002855;28;6883;-72
2022/05/13 05:47:36;;;;;;;;;;;;;;;17.20;43.35;100905.38;5004219;28;6893;-72
2022/05/13 05:50:07;;;;;;;;;;;;;;;17.13;43.74;100909.47;4999594;28;6829;-72
2022/05/13 05:52:32;;;;;;;;;;;;;;;17.08;43.48;100924.03;4981942;28;6987;-72
2022/05/13 05:58:00;;;;;;;;;;;;;;;17.05;43.76;100926.53;4993489;28;6907;-72
2022/05/13 06:00:27;;;;;;;;;;;;;;;17.06;44.13;100930.88;5004203;28;6819;-72
2022/05/13 06:02:53;;;;;;;;;;;;;;;17.07;43.80;100932.63;5006208;28;6964;-72
2022/05/13 06:05:20;;;;;;;;;;;;;;;17.11;44.35;100926.69;4997731;28;6804;-72
2022/05/13 06:07:46;;;;;;;;;;;;;;;17.20;44.28;100933.88;4970401;28;7052;-72
2022/05/13 06:10:13;;;;;;;;;;;;;;;17.28;44.10;100927.16;5003025;28;6787;-72
2022/05/13 06:12:40;;;;;;;;;;;;;;;17.38;44.25;100930.91;5002093;28;6812;-73
2022/05/13 06:15:07;;;;;;;;;;;;;;;17.47;44.34;100930.28;4997614;28;6983;-72
2022/05/13 06:17:33;;;;;;;;;;;;;;;17.56;43.83;100945.25;4996436;28;6804;-72
2022/05/13 06:20:04;;;;;;;;;;;;;;;17.63;43.89;100942.84;5004923;28;6780;-72
2022/05/13 06:22:30;;;;;;;;;;;;;;;17.70;43.85;100937.84;5003529;28;7553;-72
2022/05/13 06:24:56;;;;;;;;;;;;;;;17.74;43.41;100945.75;5002356;28;6800;-72
2022/05/13 06:27:22;;;;;;;;;;;;;;;17.83;43.84;100949.44;5002742;28;6818;-72
2022/05/13 06:29:47;;;;;;;;;;;;;;;17.92;43.82;100944.50;5005673;28;6804;-72
2022/05/13 06:32:13;;;;;;;;;;;;;;;18.01;43.34;100949.03;5001126;28;7091;-72
2022/05/13 06:34:39;;;;;;;;;;;;;;;18.10;43.51;100957.09;5000979;28;6898;-72
2022/05/13 06:37:04;;;;;;;;;;;;;;;18.16;43.06;100949.47;5003071;28;6862;-72
2022/05/13 06:39:30;;;;;;;;;;;;;;;18.22;43.02;100948.75;5000286;28;6800;-72
2022/05/13 06:41:56;;;;;;;;;;;;;;;18.24;43.08;100941.88;4998114;28;6827;-72
2022/05/13 06:44:21;;;;;;;;;;;;;;;18.25;42.82;100951.41;5001206;28;6878;-72
2022/05/13 06:46:47;;;;;;;;;;;;;;;18.27;43.22;100946.25;4999004;28;6978;-72
2022/05/13 06:49:14;;;;;;;;;;;;;;;18.29;42.95;100957.56;4999764;28;8002;-72
2022/05/13 06:51:41;;;;;;;;;;;;;;;18.31;43.13;100959.34;4999485;28;6895;-72
2022/05/13 06:54:10;;;;;;;;;;;;;;;18.37;42.65;100947.34;4957464;28;7463;-72
2022/05/13 06:56:41;;;;;;;;;;;;;;;18.41;43.05;100957.84;5001142;28;6812;-72
2022/05/13 06:59:09;;;;;;;;;;;;;;;18.49;43.19;100958.03;5002634;28;6811;-72
2022/05/13 07:01:35;;;;;;;;;;;;;;;18.58;42.75;100958.25;5000021;28;6875;-72
2022/05/13 07:04:02;;;;;;;;;;;;;;;18.68;42.93;100966.25;4996636;28;6876;-72
2022/05/13 07:06:28;;;;;;;;;;;;;;;18.78;42.97;100965.63;4993546;28;6820;-72
2022/05/13 07:08:53;;;;;;;;;;;;;;;18.89;42.92;100963.28;5003098;28;6955;-72
2022/05/13 07:11:21;;;;;;;;;;;;;;;18.98;42.50;100963.50;4998464;28;6816;-72
2022/05/13 07:13:47;;;;;;;;;;;;;;;19.09;42.93;100960.28;5001031;28;6816;-73
2022/05/13 07:16:12;;;;;;;;;;;;;;;19.23;42.57;100973.56;5002836;28;6796;-73
2022/05/13 07:18:39;;;;;;;;;;;;;;;19.34;42.72;100974.69;5000770;28;6799;-73
2022/05/13 07:21:05;;;;;;;;;;;;;;;19.45;42.29;100976.63;5003407;28;6820;-73
2022/05/13 07:23:31;;;;;;;;;;;;;;;19.54;42.37;100977.69;5000944;28;6811;-73
2022/05/13 07:25:58;;;;;;;;;;;;;;;19.64;41.68;100980.47;5016671;28;6803;-73
2022/05/13 07:28:26;;;;;;;;;;;;;;;19.73;41.88;100984.97;4980964;28;7278;-73
2022/05/13 07:30:53;;;;;;;;;;;;;;;19.83;41.72;100981.69;5004701;28;6839;-72
2022/05/13 07:33:20;;;;;;;;;;;;;;;19.92;41.60;100981.03;5004621;28;6799;-72
2022/05/13 07:35:46;;;;;;;;;;;;;;;19.97;41.31;100985.50;4998121;28;6880;-72
2022/05/13 07:38:12;;;;;;;;;;;;;;;20.04;41.25;100982.97;5000767;28;7128;-72
2022/05/13 07:43:21;;;;;;;;;;;;;;;20.16;41.63;100988.44;4999147;28;6894;-72
2022/05/13 07:45:47;;;;;;;;;;;;;;;20.24;41.22;100985.94;4990274;28;6880;-72
2022/05/13 07:48:13;;;;;;;;;;;;;;;20.31;41.36;100990.41;5001440;28;8099;-72
2022/05/13 07:50:39;;;;;;;;;;;;;;;20.38;40.90;100989.69;4983152;28;7036;-72
2022/05/13 07:53:05;;;;;;;;;;;;;;;20.42;41.04;100987.13;5005775;28;6816;-72
2022/05/13 07:55:31;;;;;;;;;;;;;;;20.44;41.15;100991.50;5006097;28;6820;-72
2022/05/13 07:57:57;;;;;;;;;;;;;;;20.50;40.84;100996.78;5003102;28;6792;-72
2022/05/13 08:00:25;;;;;;;;;;;;;;;20.64;41.10;100997.03;5005035;28;6791;-73
2022/05/13 08:02:59;;;;;;;;;;;;;;;20.78;40.71;100991.16;4987091;28;6808;-73
2022/05/13 08:05:29;;;;;;;;;;;;;;;20.86;40.58;101000.00;5005324;28;7003;-72
2022/05/13 08:08:10;;;;;;;;;;;;;;;20.92;40.21;100999.22;5002354;28;6804;-72
2022/05/13 08:10:40;;;;;;;;;;;;;;;20.93;40.18;100988.81;5003459;28;6828;-72
2022/05/13 08:13:06;;;;;;;;;;;;;;;20.94;39.84;100990.56;5004250;28;6800;-72
2022/05/13 08:15:33;;;;;;;;;;;;;;;20.93;40.07;100987.94;5002168;28;7474;-72
2022/05/13 08:17:59;;;;;;;;;;;;;;;20.92;40.19;100994.88;5006133;28;6859;-72
2022/05/13 08:20:26;;;;;;;;;;;;;;;20.94;40.34;100992.28;4996680;28;7053;-72
2022/05/13 08:22:54;;;;;;;;;;;;;;;21.00;40.58;100996.72;4985868;28;7078;-72
2022/05/13 08:25:20;;;;;;;;;;;;;;;21.11;40.41;100989.06;4999525;28;7218;-72
2022/05/13 08:27:47;;;;;;;;;;;;;;;21.25;40.41;101002.28;5005834;28;6804;-72
2022/05/13 08:30:14;;;;;;;;;;;;;;;21.42;40.36;101005.97;4999550;28;6887;-72
2022/05/13 08:32:40;;;;;;;;;;;;;;;21.64;40.09;101001.03;4993228;28;6788;-72
2022/05/13 08:35:06;;;;;;;;;;;;;;;21.95;40.02;100988.34;5000955;28;7090;-72
2022/05/13 08:37:38;;;;;;;;;;;;;;;22.31;39.47;100994.78;5004559;28;7085;-72
2022/05/13 08:40:05;;;;;;;;;;;;;;;22.72;39.34;100995.13;5001695;28;6811;-73
2022/05/13 08:42:43;;;;;;;;;;;;;;;23.23;37.99;100994.56;5005529;28;6828;-72
2022/05/13 08:45:11;;;;;;;;;;;;;;;23.62;37.91;100990.38;4996665;28;6827;-72
2022/05/13 08:47:57;;;;;;;;;;;;;;;24.01;37.62;100993.09;4983628;28;7912;-72
2022/05/13 08:50:37;;;;;;;;;;;;;;;24.43;37.11;100990.53;4999791;28;6812;-72
2022/05/13 08:53:43;;;;;;;;;;;;;;;25.04;36.50;100993.97;4996431;28;6803;-72
2022/05/13 08:56:23;;;;;;;;;;;;;;;25.71;36.01;100990.25;4962377;28;6844;-72
2022/05/13 08:59:15;;;;;;;;;;;;;;;26.28;35.39;100996.91;4998751;28;6808;-72
2022/05/13 09:02:22;;;;;;;;;;;;;;;26.89;34.26;100987.56;5004509;28;7298;-72
2022/05/13 09:05:06;;;;;;;;;;;;;;;27.60;33.74;100990.28;4999524;28;6819;-73
2022/05/13 09:07:32;;;;;;;;;;;;;;;28.09;32.83;100987.81;5003367;28;7319;-73
2022/05/13 09:10:03;;;;;;;;;;;;;;;28.39;31.33;100983.84;5001120;28;6788;-73
2022/05/13 09:12:58;;;;;;;;;;;;;;;28.66;30.98;100992.13;5000386;28;6796;-73
2022/05/13 09:15:50;;;;;;;;;;;;;;;28.83;30.98;100989.22;5002995;28;6807;-72
2022/05/13 09:18:50;;;;;;;;;;;;;;;29.27;30.23;100987.50;5004371;28;6812;-72
2022/05/13 09:21:21;;;;;;;;;;;;;;;29.69;29.84;100987.47;4994525;28;6816;-72
2022/05/13 09:23:47;;;;;;;;;;;;;;;30.12;29.16;100990.03;5004220;28;7189;-72
2022/05/13 09:26:22;;;;;;;;;;;;;;;30.50;29.03;100988.19;5000206;28;7660;-72
2022/05/13 09:29:12;;;;;;;;;;;;;;;30.86;28.17;100985.50;4976676;28;7654;-73
2022/05/13 09:31:46;;;;;;;;;;;;;;;30.99;27.31;100977.19;4997515;28;7641;-73
2022/05/13 09:34:39;;;;;;;;;;;;;;;30.73;26.61;100981.47;5001771;28;6985;-73
2022/05/13 09:37:26;;;;;;;;;;;;;;;30.01;27.04;100980.56;5004035;28;6815;-72
2022/05/13 09:40:27;;;;;;;;;;;;;;;29.23;26.92;100982.25;4976276;28;6804;-72
2022/05/13 09:42:57;;;;;;;;;;;;;;;28.89;27.29;100996.16;4984207;28;6799;-72
2022/05/13 09:45:27;;;;;;;;;;;;;;;28.99;27.40;100982.78;4998724;28;6815;-72
2022/05/13 09:48:00;;;;;;;;;;;;;;;29.32;27.28;100977.69;5001608;28;8242;-72
2022/05/13 09:50:29;;;;;;;;;;;;;;;29.65;27.38;100977.91;5002624;28;7078;-72
2022/05/13 09:53:25;;;;;;;;;;;;;;;29.96;26.37;100985.09;4987227;28;6958;-72
2022/05/13 09:55:58;;;;;;;;;;;;;;;29.59;26.24;100978.88;5003665;28;6847;-72
2022/05/13 09:58:33;;;;;;;;;;;;;;;29.07;26.26;100976.44;5002609;28;6900;-72
2022/05/13 10:01:13;;;;;;;;;;;;;;;28.89;26.25;100977.69;5003384;28;7179;-72
2022/05/13 10:03:41;;;;;;;;;;;;;;;28.69;26.78;100981.53;5003232;28;6896;-72
2022/05/13 10:06:09;;;;;;;;;;;;;;;28.73;25.90;100981.47;4985998;28;6792;-72
2022/05/13 10:08:48;;;;;;;;;;;;;;;28.97;26.71;100980.16;5005389;28;6989;-72
2022/05/13 10:14:28;;;;;;;;;;;;;;;30.15;25.67;100974.13;5001785;28;6811;-72
2022/05/13 10:17:02;;;;;;;;;;;;;;;30.65;25.65;100978.16;5001999;28;6811;-72
2022/05/13 10:19:40;;;;;;;;;;;;;;;30.88;24.72;100970.44;5003811;28;7031;-72
2022/05/13 10:22:28;;;;;;;;;;;;;;;31.14;24.08;100974.13;4993045;28;7141;-72
2022/05/13 10:25:08;;;;;;;;;;;;;;;31.31;24.06;100975.44;5002788;28;6823;-72
2022/05/13 10:27:52;;;;;;;;;;;;;;;31.25;23.46;100973.84;5003166;28;6895;-72
2022/05/13 10:30:48;;;;;;;;;;;;;;;30.69;23.83;100967.44;5002347;28;6824;-72
2022/05/13 10:33:33;;;;;;;;;;;;;;;30.20;23.75;100981.03;5000617;28;6958;-72
2022/05/13 10:36:16;;;;;;;;;;;;;;;30.08;24.01;100978.66;5000925;28;6816;-72
2022/05/13 10:39:02;;;;;;;;;;;;;;;30.25;24.02;100977.38;5003556;28;6993;-72
2022/05/13 10:41:58;;;;;;;;;;;;;;;30.48;24.14;100984.72;5003499;28;6895;-72
2022/05/13 10:44:35;;;;;;;;;;;;;;;30.43;23.82;100976.06;4998984;28;6843;-72
2022/05/13 10:47:11;;;;;;;;;;;;;;;30.26;23.87;100980.00;4998427;28;6784;-72
2022/05/13 10:49:44;;;;;;;;;;;;;;;30.28;24.08;100977.31;5000821;28;7195;-72
2022/05/13 10:52:27;;;;;;;;;;;;;;;30.43;23.82;100970.78;5001223;28;6882;-72
2022/05/13 10:55:09;;;;;;;;;;;;;;;30.55;23.84;100982.78;4997083;28;6796;-72
2022/05/13 10:58:09;;;;;;;;;;;;;;;30.45;23.69;100984.81;4999956;28;6880;-72
2022/05/13 11:00:44;;;;;;;;;;;;;;;30.33;24.42;100980.69;4993613;28;7187;-72
2022/05/13 11:03:43;;;;;;;;;;;;;;;30.49;24.10;100973.22;4996864;28;7385;-72
2022/05/13 11:06:44;;;;;;;;;;;;;;;30.78;24.12;100990.13;4997294;28;6895;-72
2022/05/13 11:09:31;;;;;;;;;;;;;;;30.44;23.93;100993.66;4994422;28;7184;-72
2022/05/13 11:12:22;;;;;;;;;;;;;;;30.40;24.04;100978.75;4990469;28;6984;-72
2022/05/13 11:15:48;;;;;;;;;;;;;;;30.60;24.16;100991.47;4992400;28;6820;-72
2022/05/13 11:19:02;;;;;;;;;;;;;;;30.75;22.90;100987.56;5017279;28;7259;-72
2022/05/13 11:22:02;;;;;;;;;;;;;;;30.74;23.19;100986.69;4997337;28;6836;-72
2022/05/13 11:27:46;;;;;;;;;;;;;;;30.97;23.39;100982.56;5003022;28;6816;-72
2022/05/13 11:30:22;;;;;;;;;;;;;;;30.93;23.54;100974.75;4995228;28;6884;-72
2022/05/13 11:33:09;;;;;;;;;;;;;;;31.16;23.36;100977.56;5005789;28;6827;-72
2022/05/13 11:35:42;;;;;;;;;;;;;;;31.45;23.03;100973.22;4989046;28;6861;-72
2022/05/13 11:38:44;;;;;;;;;;;;;;;31.27;23.04;100976.44;5003903;28;6804;-72
2022/05/13 11:41:14;;;;;;;;;;;;;;;31.15;22.84;100975.00;4993037;28;6828;-72
2022/05/13 11:44:03;;;;;;;;;;;;;;;31.38;23.43;100971.66;5006908;28;7150;-72
2022/05/13 11:47:07;;;;;;;;;;;;;;;31.53;22.82;100969.47;4984307;28;6824;-72
2022/05/13 11:49:43;;;;;;;;;;;;;;;31.41;22.85;100968.94;5006413;28;6812;-73
2022/05/13 11:52:11;;;;;;;;;;;;;;;31.42;22.34;100968.03;5007551;28;6889;-72
2022/05/13 11:54:41;;;;;;;;;;;;;;;31.49;23.29;100963.41;5005390;28;6919;-72
2022/05/13 11:57:19;;;;;;;;;;;;;;;31.58;23.03;100968.41;5009636;28;10896;-72
2022/05/13 11:59:54;;;;;;;;;;;;;;;31.84;22.78;100965.88;5004792;28;8454;-72
2022/05/13 12:02:50;;;;;;;;;;;;;;;32.16;22.54;100958.66;5002244;28;7034;-72
2022/05/13 12:05:19;;;;;;;;;;;;;;;32.30;22.51;100957.31;5008135;28;6808;-72
2022/05/13 12:08:17;;;;;;;;;;;;;;;32.49;22.36;100963.72;4998272;28;6962;-72
2022/05/13 12:11:23;;;;;;;;;;;;;;;32.85;22.24;100972.22;5012225;28;7274;-72
2022/05/13 12:14:25;;;;;;;;;;;;;;;33.05;21.97;100950.25;5008480;28;6811;-72
2022/05/13 12:17:28;;;;;;;;;;;;;;;33.16;21.74;100963.13;4991366;28;6808;-72
2022/05/13 12:20:31;;;;;;;;;;;;;;;33.11;21.64;100961.50;5006574;28;7057;-72
2022/05/13 12:23:44;;;;;;;;;;;;;;;33.20;21.69;100967.38;5005043;28;7176;-72
2022/05/13 12:26:12;;;;;;;;;;;;;;;33.25;21.57;100944.19;5016846;28;7980;-72
2022/05/13 12:28:56;;;;;;;;;;;;;;;33.31;21.35;100948.41;4976509;28;7050;-72
2022/05/13 12:31:22;;;;;;;;;;;;;;;33.34;21.37;100943.84;4997769;28;6800;-72
2022/05/13 12:40:03;;;;;;;;;;;;;;;33.28;21.27;100940.56;5048058;28;6887;-72
2022/05/13 12:42:57;;;;;;;;;;;;;;;33.35;21.11;100942.03;5062087;28;6941;-72
2022/05/13 12:45:42;;;;;;;;;;;;;;;33.51;20.85;100948.50;5016028;28;7039;-72
2022/05/13 12:48:07;;;;;;;;;;;;;;;33.72;21.20;100947.72;4997838;28;7647;-72
2022/05/13 12:50:44;;;;;;;;;;;;;;;33.92;21.03;100957.50;4994974;28;6878;-71
2022/05/13 12:53:28;;;;;;;;;;;;;;;33.90;21.04;100952.25;4994813;28;7015;-71
2022/05/13 12:56:09;;;;;;;;;;;;;;;33.79;20.65;100951.81;5003952;28;6795;-71
2022/05/13 12:58:44;;;;;;;;;;;;;;;33.70;20.79;100946.88;4998095;28;7861;-71
2022/05/13 13:01:13;;;;;;;;;;;;;;;33.63;20.86;100939.19;5000783;28;6831;-71
2022/05/13 13:03:44;;;;;;;;;;;;;;;33.63;21.23;100944.50;5003176;28;7031;-71
2022/05/13 13:06:20;;;;;;;;;;;;;;;33.62;20.91;100937.44;5005984;28;6804;-71
2022/05/13 13:08:51;;;;;;;;;;;;;;;33.45;20.85;100939.88;5003100;28;7193;-71
2022/05/13 13:11:45;;;;;;;;;;;;;;;33.25;20.81;100936.22;5002172;28;6898;-72
2022/05/13 13:14:41;;;;;;;;;;;;;;;33.13;21.35;100937.56;4999783;28;6836;-72
2022/05/13 13:17:20;;;;;;;;;;;;;;;33.19;20.95;100928.50;4992481;28;6819;-71
2022/05/13 13:19:55;;;;;;;;;;;;;;;33.32;21.35;100939.50;4997656;28;6828;-71
2022/05/13 13:22:36;;;;;;;;;;;;;;;33.44;21.11;100938.16;5005660;28;7173;-71
2022/05/13 13:25:12;;;;;;;;;;;;;;;33.41;21.26;100925.84;5006012;28;6838;-71
2022/05/13 13:27:39;;;;;;;;;;;;;;;33.38;21.29;100924.19;4988851;28;6970;-71
2022/05/13 13:30:13;;;;;;;;;;;;;;;33.37;20.98;100926.91;4994207;28;6820;-71
2022/05/13 13:32:47;;;;;;;;;;;;;;;33.36;21.59;100920.72;4981747;28;6820;-71
2022/05/13 13:35:12;;;;;;;;;;;;;;;33.35;21.28;100916.34;4999892;28;6800;-72
2022/05/13 13:37:39;;;;;;;;;;;;;;;33.31;21.21;100921.84;5000799;28;7980;-72
2022/05/13 13:40:22;;;;;;;;;;;;;;;33.19;20.98;100928.50;4994204;28;6819;-72
2022/05/13 13:42:48;;;;;;;;;;;;;;;33.03;21.14;100925.56;4988139;28;6996;-72
2022/05/13 13:45:24;;;;;;;;;;;;;;;33.00;21.60;100934.50;4994040;28;6812;-72